Time;durP1;ratioP1;P1;durP2;ratioP2;P2;SDS_P1;SDS_P2;PMS_P1;PMS_P2;Temp;Humidity;BMP_temperature;BMP_pressure;BME280_temperature;BME280_humidity;BME280_pressure;Samples;Min_cycle;Max_cycle;Signal;HPM_P1;HPM_P2
2023/03/13 03:00:30;;;;;;;4.23;3.93;;;10.10;99.90;;;;;;6009228;23;20177;-79
2023/03/13 03:02:57;;;;;;;3.70;3.40;;;10.10;99.90;;;;;;4956332;28;20211;-79
2023/03/13 03:05:24;;;;;;;5.37;4.90;;;10.20;99.90;;;;;;4964609;28;20210;-79
2023/03/13 03:07:51;;;;;;;8.43;7.80;;;10.30;99.90;;;;;;4937278;29;20203;-78
2023/03/13 03:10:18;;;;;;;8.10;7.60;;;10.30;99.90;;;;;;4939854;29;20214;-78
2023/03/13 03:12:46;;;;;;;8.63;8.03;;;10.40;99.90;;;;;;4930103;29;20730;-78
2023/03/13 03:15:13;;;;;;;8.70;8.20;;;10.40;99.90;;;;;;4928343;29;20201;-80
2023/03/13 03:17:45;;;;;;;9.03;8.53;;;10.40;99.90;;;;;;4932351;29;20205;-79
2023/03/13 03:20:12;;;;;;;10.03;9.40;;;10.40;99.90;;;;;;4932429;29;20210;-79
2023/03/13 03:22:42;;;;;;;9.00;8.37;;;10.40;99.90;;;;;;4931438;29;20225;-79
2023/03/13 03:25:09;;;;;;;7.97;7.47;;;10.50;99.90;;;;;;4934433;29;20576;-80
2023/03/13 03:27:36;;;;;;;8.53;7.93;;;10.60;99.90;;;;;;4924154;29;20746;-80
2023/03/13 03:30:07;;;;;;;8.30;7.80;;;10.60;99.90;;;;;;4921190;29;20225;-79
2023/03/13 03:32:36;;;;;;;8.13;7.60;;;10.70;99.90;;;;;;4922450;29;20225;-79
2023/03/13 03:35:05;;;;;;;8.50;8.00;;;10.70;99.90;;;;;;4933850;29;20205;-79
2023/03/13 03:37:32;;;;;;;8.20;7.50;;;10.70;99.90;;;;;;4923154;29;20221;-80
2023/03/13 03:40:00;;;;;;;7.73;7.27;;;10.80;99.90;;;;;;4930269;29;20627;-79
2023/03/13 03:42:30;;;;;;;8.13;7.63;;;10.80;99.90;;;;;;4929532;29;20223;-80
2023/03/13 03:44:58;;;;;;;7.70;7.27;;;10.80;99.90;;;;;;4928511;29;20213;-79
2023/03/13 03:47:25;;;;;;;8.13;7.50;;;10.90;99.90;;;;;;4931600;29;20580;-79
2023/03/13 03:49:52;;;;;;;7.50;7.07;;;10.90;99.90;;;;;;4931453;29;20226;-78
2023/03/13 03:52:21;;;;;;;7.60;7.17;;;10.90;99.90;;;;;;4929643;29;20273;-84
2023/03/13 03:54:48;;;;;;;7.60;7.20;;;10.90;99.90;;;;;;4909593;29;20281;-83
2023/03/13 03:57:16;;;;;;;8.00;7.50;;;10.90;99.90;;;;;;4917958;29;20207;-83
2023/03/13 03:59:45;;;;;;;8.10;7.60;;;10.90;99.90;;;;;;4931681;29;20567;-82
2023/03/13 04:02:12;;;;;;;7.90;7.40;;;10.90;99.90;;;;;;4916183;29;20248;-83
2023/03/13 04:04:40;;;;;;;7.80;7.40;;;10.80;99.90;;;;;;4916781;29;20254;-84
2023/03/13 04:07:10;;;;;;;7.60;7.10;;;10.80;99.90;;;;;;4924215;29;20261;-83
2023/03/13 04:09:40;;;;;;;8.93;8.27;;;10.90;99.90;;;;;;4916388;29;20229;-83
2023/03/13 04:12:09;;;;;;;8.93;8.33;;;10.80;99.90;;;;;;4915991;29;20281;-82
2023/03/13 04:14:41;;;;;;;9.00;8.50;;;10.80;99.90;;;;;;4916821;29;20201;-85
2023/03/13 04:17:11;;;;;;;9.13;8.63;;;10.80;99.90;;;;;;4932851;29;20212;-85
2023/03/13 04:19:38;;;;;;;9.43;8.73;;;10.80;99.90;;;;;;4926906;29;20191;-80
2023/03/13 04:22:05;;;;;;;8.87;8.30;;;10.80;99.90;;;;;;4928473;29;20225;-82
2023/03/13 04:24:32;;;;;;;7.77;7.27;;;10.80;99.90;;;;;;4915643;29;20209;-83
2023/03/13 04:27:02;;;;;;;8.53;7.73;;;10.80;99.90;;;;;;4916954;29;20689;-82
2023/03/13 04:29:29;;;;;;;6.00;5.67;;;10.80;99.90;;;;;;4915783;29;20283;-82
2023/03/13 04:32:10;;;;;;;7.43;7.00;;;10.80;99.90;;;;;;4918050;29;20597;-81
2023/03/13 04:35:12;;;;;;;6.30;5.90;;;10.80;99.90;;;;;;4931721;29;20298;-86
2023/03/13 04:37:52;;;;;;;5.80;5.40;;;10.70;99.90;;;;;;4929850;29;20212;-83
2023/03/13 04:40:37;;;;;;;2.97;2.57;;;10.70;99.90;;;;;;4928735;29;20214;-84
2023/03/13 04:43:26;;;;;;;7.43;7.03;;;10.60;99.90;;;;;;4917018;29;20689;-84
2023/03/13 04:46:02;;;;;;;6.40;6.00;;;10.70;99.90;;;;;;4932914;29;20228;-84
2023/03/13 04:48:38;;;;;;;5.47;5.03;;;10.60;99.90;;;;;;4920146;29;20235;-86
2023/03/13 04:51:16;;;;;;;6.73;6.23;;;10.70;99.90;;;;;;4920673;29;20317;-85
2023/03/13 04:53:52;;;;;;;4.60;4.30;;;10.70;99.90;;;;;;4928238;29;20249;-86
2023/03/13 04:56:41;;;;;;;7.60;7.10;;;10.70;99.90;;;;;;4946294;29;20213;-86
2023/03/13 04:59:28;;;;;;;5.33;5.03;;;10.70;99.90;;;;;;4931128;29;20729;-86
2023/03/13 05:02:13;;;;;;;9.20;8.60;;;10.80;99.90;;;;;;4929795;29;20236;-80
2023/03/13 05:04:59;;;;;;;4.63;4.23;;;10.80;99.90;;;;;;4929447;29;20208;-80
2023/03/13 05:07:46;;;;;;;3.37;3.07;;;10.80;99.90;;;;;;4933263;29;20725;-80
2023/03/13 05:10:31;;;;;;;3.53;3.33;;;10.90;99.90;;;;;;4935691;29;20235;-81
2023/03/13 05:13:28;;;;;;;3.50;3.20;;;10.90;99.90;;;;;;4934296;29;20204;-80
2023/03/13 05:16:06;;;;;;;2.10;2.00;;;10.90;99.90;;;;;;4933123;29;20585;-81
2023/03/13 05:18:35;;;;;;;2.10;2.00;;;10.90;99.90;;;;;;4934357;29;20544;-81
2023/03/13 05:21:21;;;;;;;2.30;2.10;;;11.00;99.90;;;;;;4931918;29;20228;-80
2023/03/13 05:24:07;;;;;;;3.17;2.20;;;11.00;99.90;;;;;;4937701;29;20224;-80
2023/03/13 05:26:50;;;;;;;3.20;3.00;;;11.10;99.90;;;;;;4931034;29;20638;-80
2023/03/13 05:29:29;;;;;;;2.50;2.30;;;11.10;99.90;;;;;;4933168;29;20224;-81
2023/03/13 05:32:22;;;;;;;2.77;2.57;;;11.10;99.90;;;;;;4933438;29;20317;-80
2023/03/13 05:35:17;;;;;;;2.53;2.10;;;11.10;99.90;;;;;;4931321;29;20210;-81
2023/03/13 05:37:57;;;;;;;2.33;2.13;;;11.10;99.90;;;;;;4927496;29;20244;-80
2023/03/13 05:40:46;;;;;;;3.53;2.20;;;11.20;99.90;;;;;;4934933;29;20315;-81
2023/03/13 05:43:33;;;;;;;4.50;2.30;;;11.20;99.90;;;;;;4933634;29;20294;-79
2023/03/13 05:46:22;;;;;;;2.30;2.20;;;11.30;99.90;;;;;;4933588;29;20213;-80
2023/03/13 05:48:58;;;;;;;6.73;6.23;;;11.30;99.90;;;;;;4931693;29;20272;-80
2023/03/13 05:51:44;;;;;;;9.77;9.17;;;11.40;99.90;;;;;;4933759;29;20822;-80
2023/03/13 05:54:41;;;;;;;9.73;9.10;;;11.40;99.90;;;;;;4927586;29;20203;-80
2023/03/13 05:57:24;;;;;;;9.17;8.67;;;11.40;99.90;;;;;;4928236;29;20229;-80
2023/03/13 06:00:02;;;;;;;6.60;6.20;;;11.40;99.90;;;;;;4933541;29;20582;-80
2023/03/13 06:02:49;;;;;;;7.23;6.73;;;11.40;99.90;;;;;;4932810;29;20229;-81
2023/03/13 06:05:23;;;;;;;3.37;2.70;;;11.50;99.90;;;;;;4928755;29;20203;-80
2023/03/13 06:07:50;;;;;;;3.40;2.93;;;11.50;99.90;;;;;;4934112;29;20601;-79
2023/03/13 06:10:17;;;;;;;9.57;8.93;;;11.50;99.90;;;;;;4930752;29;20709;-78
2023/03/13 06:12:45;;;;;;;6.40;5.93;;;11.50;99.90;;;;;;4930027;29;20215;-81
2023/03/13 06:15:13;;;;;;;2.40;2.20;;;11.60;99.90;;;;;;4933876;29;20206;-80
2023/03/13 06:17:55;;;;;;;4.70;4.40;;;11.60;99.90;;;;;;4933334;29;20232;-81
2023/03/13 06:20:23;;;;;;;8.00;7.30;;;11.70;99.90;;;;;;4935996;29;20190;-80
2023/03/13 06:22:50;;;;;;;2.60;2.40;;;11.70;99.90;;;;;;4932054;29;20207;-80
2023/03/13 06:25:17;;;;;;;4.07;2.83;;;11.80;99.90;;;;;;4937562;29;20219;-79
2023/03/13 06:27:43;;;;;;;5.27;4.87;;;11.80;99.90;;;;;;4934050;29;20678;-77
2023/03/13 06:30:11;;;;;;;2.90;2.40;;;11.90;99.90;;;;;;4930267;29;20223;-79
2023/03/13 06:32:38;;;;;;;2.20;2.10;;;11.90;99.90;;;;;;4935212;29;20268;-79
2023/03/13 06:35:06;;;;;;;2.97;2.73;;;12.00;99.90;;;;;;4932570;29;20266;-78
2023/03/13 06:37:34;;;;;;;2.27;2.10;;;12.10;99.90;;;;;;4933279;29;20194;-79
2023/03/13 06:40:02;;;;;;;5.10;4.53;;;12.10;99.90;;;;;;4931398;29;20210;-81
2023/03/13 06:42:29;;;;;;;4.57;4.27;;;12.20;99.90;;;;;;4935846;29;20247;-79
2023/03/13 06:44:56;;;;;;;5.77;5.37;;;12.20;99.90;;;;;;4937325;29;20641;-78
2023/03/13 06:47:23;;;;;;;7.30;6.90;;;12.20;99.90;;;;;;4926191;29;20199;-79
2023/03/13 06:49:50;;;;;;;9.70;9.13;;;12.30;99.90;;;;;;4934204;29;20223;-79
2023/03/13 06:52:17;;;;;;;9.67;9.07;;;12.30;99.90;;;;;;4932009;29;20226;-78
2023/03/13 06:54:45;;;;;;;7.73;7.33;;;12.40;99.90;;;;;;4931790;29;20226;-78
2023/03/13 06:57:11;;;;;;;9.57;9.00;;;12.40;99.90;;;;;;4928786;29;20204;-83
2023/03/13 06:59:38;;;;;;;9.10;8.40;;;12.50;99.90;;;;;;4928445;29;20196;-83
2023/03/13 07:02:06;;;;;;;9.40;8.70;;;12.50;99.90;;;;;;4933553;29;20262;-80
2023/03/13 07:04:32;;;;;;;8.30;7.80;;;12.50;99.90;;;;;;4931052;29;20192;-83
2023/03/13 07:06:59;;;;;;;9.63;8.13;;;12.60;99.90;;;;;;4930979;29;20263;-82
2023/03/13 07:09:26;;;;;;;9.20;8.70;;;12.60;99.90;;;;;;4927876;29;20278;-82
2023/03/13 07:11:56;;;;;;;9.00;8.50;;;12.70;99.90;;;;;;4933617;29;20642;-81
2023/03/13 07:14:23;;;;;;;8.87;8.37;;;12.70;99.90;;;;;;4917882;29;20623;-81
2023/03/13 07:16:50;;;;;;;8.80;8.30;;;12.70;99.90;;;;;;4929215;29;20786;-83
2023/03/13 07:19:17;;;;;;;8.40;7.90;;;12.80;99.90;;;;;;4933048;29;20203;-81
2023/03/13 07:21:45;;;;;;;8.73;8.10;;;12.80;99.90;;;;;;4929740;29;20274;-82
2023/03/13 07:24:12;;;;;;;8.83;8.20;;;12.90;99.90;;;;;;4928583;29;20559;-81
2023/03/13 07:26:39;;;;;;;10.53;7.80;;;12.90;99.90;;;;;;4934661;29;20200;-80
2023/03/13 07:29:07;;;;;;;2.37;2.03;;;13.00;99.90;;;;;;4934182;29;20222;-82
2023/03/13 07:31:34;;;;;;;4.33;2.40;;;13.00;99.90;;;;;;4929456;29;20699;-81
2023/03/13 07:34:01;;;;;;;2.13;2.03;;;13.00;99.90;;;;;;4930632;29;20218;-82
2023/03/13 07:36:28;;;;;;;2.53;2.33;;;13.10;99.90;;;;;;4928320;29;20206;-80
2023/03/13 07:38:55;;;;;;;2.80;2.50;;;13.10;99.90;;;;;;4933133;29;20301;-81
2023/03/13 07:41:22;;;;;;;3.13;2.20;;;13.30;99.90;;;;;;4931028;29;20227;-79
2023/03/13 07:43:49;;;;;;;2.10;2.00;;;13.40;99.90;;;;;;4932701;29;20205;-81
2023/03/13 07:46:19;;;;;;;2.30;2.10;;;13.50;99.90;;;;;;4935019;29;20209;-81
2023/03/13 07:48:47;;;;;;;2.57;2.40;;;13.50;99.90;;;;;;4932016;29;20255;-83
2023/03/13 07:51:15;;;;;;;2.20;2.00;;;13.60;99.90;;;;;;4928419;29;20228;-85
2023/03/13 07:53:42;;;;;;;2.30;2.10;;;13.70;99.90;;;;;;4928810;29;20201;-84
2023/03/13 07:56:12;;;;;;;2.30;2.10;;;13.80;99.90;;;;;;4931988;29;20203;-80
2023/03/13 07:58:40;;;;;;;3.80;2.10;;;13.90;99.90;;;;;;4933407;29;20204;-79
2023/03/13 08:01:11;;;;;;;3.37;2.07;;;14.00;99.90;;;;;;4929239;29;20301;-80
2023/03/13 08:03:40;;;;;;;2.13;2.03;;;13.90;99.90;;;;;;4930689;29;20275;-80
2023/03/13 08:06:09;;;;;;;3.70;2.40;;;13.90;99.90;;;;;;4931827;29;20205;-80
2023/03/13 08:08:36;;;;;;;2.20;2.10;;;14.00;99.90;;;;;;4927539;29;20247;-80
2023/03/13 08:11:04;;;;;;;2.00;1.90;;;14.10;99.90;;;;;;4932773;29;20228;-79
2023/03/13 08:13:31;;;;;;;2.10;2.00;;;14.10;99.90;;;;;;4918301;29;20196;-79
2023/03/13 08:16:03;;;;;;;2.17;1.97;;;14.30;99.90;;;;;;4929248;29;20210;-79
2023/03/13 08:18:33;;;;;;;2.80;2.10;;;14.30;99.90;;;;;;4930136;29;20252;-79
2023/03/13 08:21:03;;;;;;;2.67;2.00;;;14.30;99.90;;;;;;4927757;29;20321;-80
2023/03/13 08:23:30;;;;;;;3.27;2.10;;;14.40;99.90;;;;;;4915608;29;20228;-79
2023/03/13 08:26:01;;;;;;;2.20;2.00;;;14.40;99.90;;;;;;4915542;29;20271;-80
2023/03/13 08:28:27;;;;;;;2.17;2.07;;;14.40;99.90;;;;;;4915799;29;20207;-79
2023/03/13 08:30:54;;;;;;;2.00;1.90;;;14.60;99.90;;;;;;4916634;29;20637;-80
2023/03/13 08:33:21;;;;;;;2.70;2.50;;;14.70;99.90;;;;;;4920911;29;20751;-81
2023/03/13 08:35:48;;;;;;;3.23;2.70;;;14.80;99.90;;;;;;4932464;29;20212;-80
2023/03/13 08:38:17;;;;;;;2.30;2.10;;;14.90;99.90;;;;;;4935193;29;20209;-79
2023/03/13 08:40:44;;;;;;;2.20;2.07;;;15.10;99.90;;;;;;4931988;29;20221;-80
2023/03/13 08:43:10;;;;;;;2.50;2.20;;;15.10;99.90;;;;;;4930805;29;20237;-79
2023/03/13 08:45:37;;;;;;;3.30;3.10;;;15.20;99.90;;;;;;4932714;29;20625;-80
2023/03/13 08:48:04;;;;;;;2.60;2.40;;;15.10;99.90;;;;;;4935126;29;20265;-80
2023/03/13 08:50:31;;;;;;;6.13;5.83;;;15.20;99.90;;;;;;4929209;29;20226;-80
2023/03/13 08:52:58;;;;;;;6.37;6.00;;;15.30;99.90;;;;;;4934110;29;20235;-79
2023/03/13 08:55:26;;;;;;;6.70;6.30;;;15.30;99.90;;;;;;4929661;29;20214;-80
2023/03/13 08:57:53;;;;;;;6.67;6.27;;;15.30;99.90;;;;;;4928315;29;20211;-80
2023/03/13 09:00:20;;;;;;;6.90;6.50;;;15.20;99.90;;;;;;4928383;29;20203;-82
2023/03/13 09:02:47;;;;;;;7.57;7.07;;;15.10;99.90;;;;;;4929891;28;20207;-83
2023/03/13 09:05:14;;;;;;;7.97;7.47;;;15.10;99.90;;;;;;4931595;29;20216;-81
2023/03/13 09:07:41;;;;;;;7.60;7.20;;;15.20;99.90;;;;;;4931578;29;20205;-79
2023/03/13 09:10:08;;;;;;;7.10;6.70;;;15.20;99.90;;;;;;4935429;29;20215;-78
2023/03/13 09:12:37;;;;;;;7.50;7.10;;;15.20;99.90;;;;;;4934384;29;20233;-78
2023/03/13 09:15:04;;;;;;;7.83;7.23;;;15.30;99.90;;;;;;4948716;28;20634;-79
2023/03/13 09:17:31;;;;;;;7.20;6.80;;;15.30;99.90;;;;;;4924689;29;20200;-78
2023/03/13 09:19:57;;;;;;;7.57;7.17;;;15.30;99.90;;;;;;4934782;29;20215;-79
2023/03/13 09:22:24;;;;;;;7.60;7.10;;;15.40;99.90;;;;;;4932371;29;20223;-79
2023/03/13 09:24:51;;;;;;;6.90;6.40;;;15.50;99.90;;;;;;4930526;29;20258;-79
2023/03/13 09:27:18;;;;;;;7.17;6.70;;;15.60;99.90;;;;;;4922381;29;20681;-77
2023/03/13 09:29:46;;;;;;;6.40;6.00;;;15.90;99.90;;;;;;4920366;29;20204;-78
2023/03/13 09:32:13;;;;;;;7.50;7.10;;;16.30;99.90;;;;;;4921337;29;20287;-78
2023/03/13 09:34:40;;;;;;;7.10;6.40;;;16.80;99.90;;;;;;4918384;29;20207;-78
2023/03/13 09:37:07;;;;;;;4.90;4.60;;;17.20;99.90;;;;;;4917906;29;20272;-78
2023/03/13 09:39:34;;;;;;;3.80;3.60;;;17.60;99.90;;;;;;4919074;29;20200;-78
2023/03/13 09:42:09;;;;;;;4.50;4.20;;;18.10;99.90;;;;;;4920255;29;20781;-78
2023/03/13 09:44:42;;;;;;;3.47;3.20;;;18.50;99.90;;;;;;4934113;29;20227;-78
2023/03/13 09:47:18;;;;;;;3.50;3.30;;;18.90;99.90;;;;;;4933008;29;20643;-78
2023/03/13 09:49:50;;;;;;;3.70;3.40;;;19.20;99.90;;;;;;4931762;29;20203;-83
2023/03/13 09:52:19;;;;;;;4.17;2.80;;;19.20;99.90;;;;;;4930377;29;20230;-82
2023/03/13 09:54:50;;;;;;;3.20;3.03;;;19.00;99.90;;;;;;4933406;29;20583;-83
2023/03/13 09:57:24;;;;;;;3.23;3.03;;;19.00;99.90;;;;;;4921837;29;20206;-83
2023/03/13 09:59:55;;;;;;;4.53;2.37;;;18.80;99.90;;;;;;4923919;29;20228;-83
2023/03/13 10:02:31;;;;;;;2.83;2.57;;;18.70;99.90;;;;;;4928581;29;20235;-83
2023/03/13 10:05:09;;;;;;;2.97;2.67;;;18.50;99.90;;;;;;4923519;29;20215;-82
2023/03/13 10:07:36;;;;;;;2.80;2.60;;;18.50;99.90;;;;;;4929610;29;20199;-82
2023/03/13 10:10:04;;;;;;;2.70;2.60;;;18.90;99.90;;;;;;4928673;29;20278;-83
2023/03/13 10:12:37;;;;;;;2.87;2.53;;;19.40;99.90;;;;;;4935373;29;20274;-82
2023/03/13 10:15:34;;;;;;;3.17;2.40;;;19.50;99.90;;;;;;4934758;29;20265;-83
2023/03/13 10:18:13;;;;;;;11.27;9.33;;;19.50;99.90;;;;;;4917755;29;20212;-83
2023/03/13 10:20:42;;;;;;;7.83;5.67;;;19.50;99.90;;;;;;4923557;29;20208;-83
2023/03/13 10:23:15;;;;;;;4.70;3.17;;;19.40;99.90;;;;;;4936497;29;20213;-83
2023/03/13 10:25:42;;;;;;;4.07;2.90;;;19.40;99.90;;;;;;4935297;29;20681;-84
2023/03/13 10:28:12;;;;;;;3.20;2.80;;;19.40;99.90;;;;;;4928533;29;20238;-84
2023/03/13 10:30:43;;;;;;;4.47;2.70;;;19.40;99.90;;;;;;4914673;29;20287;-83
2023/03/13 10:33:23;;;;;;;2.90;2.70;;;19.40;99.90;;;;;;4928757;29;20207;-83
2023/03/13 10:36:07;;;;;;;2.83;2.50;;;19.30;99.90;;;;;;4911298;29;20222;-83
2023/03/13 10:38:45;;;;;;;2.90;2.70;;;19.40;99.90;;;;;;4918671;29;20226;-83
2023/03/13 10:41:22;;;;;;;3.27;3.00;;;19.50;99.90;;;;;;4933085;29;20235;-83
2023/03/13 10:43:51;;;;;;;3.20;2.90;;;19.30;99.90;;;;;;4933942;29;20219;-83
2023/03/13 10:46:25;;;;;;;4.07;3.03;;;19.40;99.90;;;;;;4935448;29;20235;-83
2023/03/13 10:48:56;;;;;;;5.03;3.20;;;19.30;99.90;;;;;;4927288;29;20199;-83
2023/03/13 10:51:25;;;;;;;3.60;3.30;;;19.10;99.90;;;;;;4931106;29;20219;-83
2023/03/13 10:53:52;;;;;;;3.60;3.30;;;19.10;99.90;;;;;;4907280;29;20253;-83
2023/03/13 10:56:30;;;;;;;6.17;3.10;;;19.00;99.90;;;;;;4919992;29;20203;-82
2023/03/13 10:58:57;;;;;;;3.17;2.53;;;19.00;99.90;;;;;;4926126;29;20203;-82
2023/03/13 11:01:27;;;;;;;3.03;2.83;;;19.20;99.90;;;;;;4914373;29;20755;-83
2023/03/13 11:03:59;;;;;;;2.93;2.60;;;19.40;99.90;;;;;;4916572;29;20675;-83
2023/03/13 11:06:31;;;;;;;2.90;2.70;;;19.50;99.90;;;;;;4925434;29;20299;-84
2023/03/13 11:09:11;;;;;;;2.63;2.43;;;19.50;99.90;;;;;;4930442;29;20244;-84
2023/03/13 11:11:46;;;;;;;2.60;2.40;;;19.70;99.90;;;;;;4927716;29;20211;-84
2023/03/13 11:14:17;;;;;;;2.93;2.67;;;19.90;99.90;;;;;;4929484;29;20285;-83
2023/03/13 11:16:49;;;;;;;3.50;2.10;;;20.00;99.90;;;;;;4906749;29;20203;-83
2023/03/13 11:19:43;;;;;;;3.17;2.97;;;20.30;99.90;;;;;;4917515;29;20204;-82
2023/03/13 11:22:34;;;;;;;3.10;2.73;;;20.40;99.90;;;;;;4934486;29;20283;-83
2023/03/13 11:25:19;;;;;;;3.90;3.60;;;20.40;99.90;;;;;;4923813;29;20214;-83
2023/03/13 11:27:55;;;;;;;5.10;4.10;;;20.40;99.90;;;;;;4929326;29;20286;-84
2023/03/13 11:30:53;;;;;;;4.70;4.20;;;20.40;99.90;;;;;;4931574;29;20235;-84
2023/03/13 11:33:36;;;;;;;4.07;3.60;;;20.40;99.90;;;;;;4908555;29;20211;-84
2023/03/13 11:36:13;;;;;;;3.57;3.23;;;20.30;99.90;;;;;;4917760;29;20216;-82
2023/03/13 11:38:42;;;;;;;3.80;3.50;;;20.40;99.90;;;;;;4917338;29;20204;-82
2023/03/13 11:41:22;;;;;;;4.30;4.00;;;20.50;99.90;;;;;;4936234;29;20237;-83
2023/03/13 11:44:00;;;;;;;4.60;4.20;;;20.60;99.90;;;;;;4911372;29;20208;-81
2023/03/13 11:46:44;;;;;;;4.30;4.10;;;20.50;99.90;;;;;;4922772;29;20270;-83
2023/03/13 11:49:43;;;;;;;4.40;4.20;;;20.50;99.90;;;;;;4931708;29;20206;-83
2023/03/13 11:52:28;;;;;;;4.73;4.33;;;20.60;99.90;;;;;;4928363;29;20702;-82
2023/03/13 11:55:16;;;;;;;4.73;4.37;;;20.50;99.90;;;;;;4927824;29;20275;-82
2023/03/13 11:57:52;;;;;;;4.80;4.50;;;20.40;99.90;;;;;;4932309;29;20195;-82
2023/03/13 12:00:25;;;;;;;5.10;4.60;;;20.40;99.90;;;;;;4921572;29;20215;-82
2023/03/13 12:02:57;;;;;;;4.60;4.27;;;20.30;99.90;;;;;;4918804;29;20223;-82
2023/03/13 12:05:26;;;;;;;4.83;4.30;;;20.30;99.90;;;;;;4914666;29;20781;-82
2023/03/13 12:08:02;;;;;;;4.80;4.50;;;20.20;99.90;;;;;;4912907;29;20211;-82
2023/03/13 12:10:33;;;;;;;4.70;4.40;;;20.10;99.90;;;;;;4934290;29;20210;-83
2023/03/13 12:13:05;;;;;;;4.50;4.20;;;20.00;99.90;;;;;;4923945;29;20212;-81
2023/03/13 12:15:37;;;;;;;4.20;3.90;;;20.00;99.90;;;;;;4932522;29;20212;-83
2023/03/13 12:18:09;;;;;;;4.33;3.83;;;20.00;99.90;;;;;;4932641;29;20207;-82
2023/03/13 12:20:42;;;;;;;3.90;3.60;;;20.00;99.90;;;;;;4931139;29;20246;-82
2023/03/13 12:23:18;;;;;;;4.40;3.60;;;20.00;99.90;;;;;;4916965;29;20215;-83
2023/03/13 12:25:50;;;;;;;5.10;3.20;;;19.90;99.90;;;;;;4916296;29;20210;-83
2023/03/13 12:28:29;;;;;;;3.30;2.80;;;20.00;99.90;;;;;;4916284;29;20207;-83
2023/03/13 12:31:06;;;;;;;3.67;3.00;;;20.00;99.90;;;;;;4916220;29;20215;-82
2023/03/13 12:33:38;;;;;;;3.97;2.63;;;20.10;99.90;;;;;;4919965;29;20204;-82
2023/03/13 12:36:12;;;;;;;3.77;3.10;;;20.10;99.90;;;;;;4926864;29;20199;-82
2023/03/13 12:38:45;;;;;;;2.80;2.70;;;20.20;99.90;;;;;;4924319;29;20203;-82
2023/03/13 12:41:19;;;;;;;3.20;2.90;;;20.30;99.90;;;;;;4916000;29;20275;-81
2023/03/13 12:43:49;;;;;;;3.67;2.90;;;20.30;99.90;;;;;;4915190;29;20671;-81
2023/03/13 12:46:33;;;;;;;3.63;2.90;;;20.30;99.90;;;;;;4932364;29;20217;-82
2023/03/13 12:49:21;;;;;;;4.50;3.00;;;20.30;99.90;;;;;;4927717;29;20211;-81
2023/03/13 12:52:03;;;;;;;2.93;2.70;;;20.40;99.90;;;;;;4919467;29;20227;-82
2023/03/13 12:55:03;;;;;;;2.83;2.63;;;20.40;99.90;;;;;;4911735;29;20615;-81
2023/03/13 12:58:11;;;;;;;3.00;2.60;;;20.40;99.90;;;;;;4928587;29;20255;-82
2023/03/13 13:00:42;;;;;;;3.17;2.87;;;20.50;99.90;;;;;;4904364;29;20303;-82
2023/03/13 13:03:20;;;;;;;4.43;2.80;;;20.40;99.90;;;;;;4916694;29;20256;-82
2023/03/13 13:06:01;;;;;;;3.20;2.90;;;20.50;99.90;;;;;;4922806;29;20210;-82
2023/03/13 13:08:33;;;;;;;2.80;2.60;;;20.50;99.90;;;;;;4914136;29;20580;-83
2023/03/13 13:11:33;;;;;;;2.90;2.70;;;20.60;99.90;;;;;;4928144;29;20228;-82
2023/03/13 13:14:02;;;;;;;4.50;2.90;;;20.60;99.90;;;;;;4927340;29;20260;-83
2023/03/13 13:16:30;;;;;;;3.77;3.40;;;20.70;99.90;;;;;;4927421;29;20192;-80
2023/03/13 13:19:27;;;;;;;3.33;3.03;;;20.90;99.90;;;;;;4917829;29;20200;-80
2023/03/13 13:22:27;;;;;;;3.90;2.80;;;20.90;99.90;;;;;;4921461;29;20216;-77
2023/03/13 13:24:56;;;;;;;2.90;2.70;;;21.00;99.90;;;;;;4936405;29;20208;-79
2023/03/13 13:27:46;;;;;;;5.00;3.00;;;21.10;99.90;;;;;;4917010;29;20666;-79
2023/03/13 13:30:32;;;;;;;3.93;3.20;;;21.20;99.90;;;;;;4933990;29;20251;-80
2023/03/13 13:33:33;;;;;;;4.30;4.00;;;21.30;99.90;;;;;;4931871;29;20200;-78
2023/03/13 13:36:29;;;;;;;4.00;3.70;;;21.30;99.90;;;;;;4931783;29;20215;-78
2023/03/13 13:38:58;;;;;;;3.83;3.53;;;21.30;99.90;;;;;;4930925;29;20263;-79
2023/03/13 13:41:35;;;;;;;4.20;3.90;;;21.30;99.90;;;;;;4933677;29;20226;-79
2023/03/13 13:44:22;;;;;;;4.00;3.70;;;21.40;99.90;;;;;;4933139;29;20269;-79
2023/03/13 13:46:50;;;;;;;3.60;3.40;;;21.50;99.90;;;;;;4933729;29;20199;-78
2023/03/13 13:49:18;;;;;;;4.10;3.80;;;21.50;99.90;;;;;;4929596;29;20258;-78
2023/03/13 13:52:19;;;;;;;3.10;2.73;;;21.60;99.90;;;;;;4933492;29;20211;-78
2023/03/13 13:54:57;;;;;;;3.17;2.90;;;21.60;99.90;;;;;;4917405;29;20208;-78
2023/03/13 13:57:26;;;;;;;2.63;2.43;;;21.60;99.90;;;;;;4921240;29;20251;-80
2023/03/13 13:59:58;;;;;;;3.40;3.10;;;21.70;99.90;;;;;;4936620;29;20227;-81
2023/03/13 14:02:30;;;;;;;3.40;3.10;;;21.60;99.90;;;;;;4934258;29;20301;-81
2023/03/13 14:05:03;;;;;;;3.50;3.20;;;21.70;99.90;;;;;;4935312;29;20618;-81
2023/03/13 14:07:47;;;;;;;3.53;2.20;;;21.80;99.90;;;;;;4934783;29;20215;-81
2023/03/13 14:10:28;;;;;;;2.80;2.60;;;21.80;99.90;;;;;;4932088;29;20255;-80
2023/03/13 14:12:57;;;;;;;4.03;3.73;;;21.80;99.90;;;;;;4929529;29;20212;-80
2023/03/13 14:15:25;;;;;;;4.40;4.10;;;21.80;99.90;;;;;;4923112;29;20620;-80
2023/03/13 14:17:55;;;;;;;4.20;3.90;;;21.80;99.90;;;;;;4932292;29;20251;-79
2023/03/13 14:20:33;;;;;;;4.60;4.20;;;21.80;99.90;;;;;;4924734;29;20204;-78
2023/03/13 14:23:02;;;;;;;4.30;3.90;;;21.80;99.90;;;;;;4919698;29;20231;-79
2023/03/13 14:25:41;;;;;;;4.50;4.10;;;21.90;99.90;;;;;;4932520;29;20250;-80
2023/03/13 14:28:17;;;;;;;4.63;3.70;;;22.10;99.90;;;;;;4920874;29;20650;-80
2023/03/13 14:30:45;;;;;;;4.20;3.87;;;22.20;99.90;;;;;;4924548;29;20227;-80
2023/03/13 14:33:13;;;;;;;4.30;4.00;;;22.30;99.90;;;;;;4925441;29;20196;-78
2023/03/13 14:35:41;;;;;;;4.73;4.30;;;22.30;99.90;;;;;;4927223;29;20675;-80
2023/03/13 14:38:15;;;;;;;4.50;4.17;;;22.30;99.90;;;;;;4931253;29;20200;-80
2023/03/13 14:40:42;;;;;;;4.10;3.90;;;22.30;99.90;;;;;;4919712;29;20235;-80
2023/03/13 14:43:19;;;;;;;4.53;3.83;;;22.20;99.90;;;;;;4936529;29;20271;-80
2023/03/13 14:45:46;;;;;;;3.70;3.50;;;22.10;99.90;;;;;;4919321;29;20203;-79
2023/03/13 14:48:20;;;;;;;4.20;3.70;;;21.90;99.90;;;;;;4929189;29;20207;-80
2023/03/13 14:50:47;;;;;;;7.27;3.97;;;21.70;99.90;;;;;;4935744;29;20223;-80
2023/03/13 14:53:18;;;;;;;6.13;4.17;;;21.60;99.90;;;;;;4926880;29;20210;-80
2023/03/13 14:55:46;;;;;;;4.10;3.70;;;21.50;99.90;;;;;;4933771;29;20207;-81
2023/03/13 14:58:28;;;;;;;4.33;4.00;;;21.40;99.90;;;;;;4928167;29;20212;-78
2023/03/13 15:00:57;;;;;;;4.60;4.20;;;21.30;99.90;;;;;;4928508;29;20641;-79
2023/03/13 15:03:30;;;;;;;4.30;4.00;;;21.20;99.90;;;;;;4933508;29;20223;-79
2023/03/13 15:06:16;;;;;;;4.00;3.70;;;21.00;99.90;;;;;;4931622;29;20241;-78
2023/03/13 15:08:45;;;;;;;4.03;3.70;;;20.90;99.90;;;;;;4922727;29;20204;-79
2023/03/13 15:11:25;;;;;;;3.23;2.90;;;20.90;99.90;;;;;;4934231;29;20227;-80
2023/03/13 15:13:53;;;;;;;3.70;3.50;;;20.80;99.90;;;;;;4934012;29;20207;-78
2023/03/13 15:16:22;;;;;;;3.83;3.60;;;20.80;99.90;;;;;;4925943;29;20239;-80
2023/03/13 15:18:51;;;;;;;3.97;3.40;;;20.80;99.90;;;;;;4924184;29;20666;-80
2023/03/13 15:21:24;;;;;;;3.80;3.60;;;20.80;99.90;;;;;;4929401;29;20326;-79
2023/03/13 15:23:54;;;;;;;4.00;3.70;;;20.80;99.90;;;;;;4911507;29;20245;-80
2023/03/13 15:26:21;;;;;;;3.47;3.27;;;20.80;99.90;;;;;;4916012;29;20208;-80
2023/03/13 15:28:48;;;;;;;3.90;3.43;;;20.70;99.90;;;;;;4918254;29;20263;-79
2023/03/13 15:31:15;;;;;;;4.87;3.53;;;20.70;99.90;;;;;;4910710;29;20640;-78
2023/03/13 15:33:43;;;;;;;4.03;3.73;;;20.60;99.90;;;;;;4926526;29;20255;-79
2023/03/13 15:36:12;;;;;;;4.30;4.00;;;20.60;99.90;;;;;;4927074;29;20202;-79
2023/03/13 15:38:39;;;;;;;3.70;3.50;;;20.50;99.90;;;;;;4921210;29;20224;-79
2023/03/13 15:41:08;;;;;;;2.60;2.40;;;20.40;99.90;;;;;;4917160;29;20239;-80
2023/03/13 15:43:35;;;;;;;3.17;2.60;;;20.30;99.90;;;;;;4918497;29;20220;-81
2023/03/13 15:46:02;;;;;;;3.17;2.90;;;20.10;99.90;;;;;;4912041;29;20220;-80
2023/03/13 15:48:31;;;;;;;3.90;3.60;;;20.00;99.90;;;;;;4923887;29;20314;-81
2023/03/13 15:51:00;;;;;;;3.27;2.33;;;19.90;99.90;;;;;;4919700;29;20235;-80
2023/03/13 15:53:31;;;;;;;3.07;2.77;;;19.80;99.90;;;;;;4911194;29;20238;-81
2023/03/13 15:56:00;;;;;;;2.63;2.47;;;19.70;99.90;;;;;;4918783;29;20208;-81
2023/03/13 15:58:28;;;;;;;2.70;2.50;;;19.80;99.90;;;;;;4914468;29;20231;-80
2023/03/13 16:00:56;;;;;;;3.23;3.03;;;19.70;99.90;;;;;;4920373;29;20714;-80
2023/03/13 16:03:24;;;;;;;3.53;3.33;;;19.60;99.90;;;;;;4918356;29;20773;-79
2023/03/13 16:05:52;;;;;;;2.33;2.23;;;19.50;99.90;;;;;;4925623;29;20210;-80
2023/03/13 16:08:21;;;;;;;6.17;5.67;;;19.30;99.90;;;;;;4936947;29;20219;-79
2023/03/13 16:10:50;;;;;;;4.37;3.43;;;19.20;99.90;;;;;;4916377;29;20230;-79
2023/03/13 16:13:17;;;;;;;3.20;3.00;;;19.20;99.90;;;;;;4918173;29;20196;-81
2023/03/13 16:15:46;;;;;;;2.47;2.30;;;19.10;99.90;;;;;;4917958;29;20208;-80